Time;durP1;ratioP1;P1;durP2;ratioP2;P2;SDS_P1;SDS_P2;PMS_P1;PMS_P2;Temp;Humidity;BMP_temperature;BMP_pressure;BME280_temperature;BME280_humidity;BME280_pressure;Samples;Min_cycle;Max_cycle;Signal;HPM_P1;HPM_P2
2022/01/28 00:02:38;;;;;;;24.27;3.75;;;5.30;99.90;;;;;;5072516;28;20120;-66
2022/01/28 00:05:01;;;;;;;10.68;2.33;;;5.20;99.90;;;;;;5056636;28;20525;-69
2022/01/28 00:07:26;;;;;;;8.68;1.98;;;5.00;99.90;;;;;;5058012;28;20041;-69
2022/01/28 00:09:52;;;;;;;15.27;2.78;;;4.70;99.90;;;;;;5056301;28;20037;-68
2022/01/28 00:12:17;;;;;;;15.00;2.35;;;4.70;99.90;;;;;;5071318;28;20047;-67
2022/01/28 00:15:02;;;;;;;13.65;2.47;;;4.30;99.90;;;;;;5069033;28;20501;-67
2022/01/28 00:38:58;;;;;;;31.77;4.45;;;4.30;99.90;;;;;;5072764;28;20579;-66
2022/01/28 00:41:24;;;;;;;20.00;4.80;;;4.40;99.90;;;;;;5060422;28;20036;-66
2022/01/28 00:43:49;;;;;;;23.80;3.58;;;4.50;99.90;;;;;;5059577;28;20048;-67
2022/01/28 00:46:15;;;;;;;32.28;4.28;;;4.60;99.90;;;;;;5066855;28;20544;-67
2022/01/28 00:48:41;;;;;;;33.00;5.15;;;4.70;99.90;;;;;;5068853;28;20047;-67
2022/01/28 00:51:06;;;;;;;25.90;4.45;;;4.70;99.90;;;;;;5057773;28;20049;-68
2022/01/28 00:53:32;;;;;;;32.05;4.50;;;4.80;99.90;;;;;;5065213;28;20081;-65
2022/01/28 00:55:58;;;;;;;29.20;4.68;;;4.90;99.90;;;;;;5067634;28;20037;-67
2022/01/28 00:58:24;;;;;;;14.50;3.33;;;4.90;99.90;;;;;;5050349;28;20125;-66
2022/01/28 01:00:51;;;;;;;22.70;3.83;;;5.00;99.90;;;;;;5065329;28;20124;-67
2022/01/28 01:03:16;;;;;;;28.38;4.82;;;5.00;99.90;;;;;;5058900;28;20048;-67
2022/01/28 01:05:42;;;;;;;19.73;3.97;;;5.00;99.90;;;;;;5067865;28;20036;-66
2022/01/28 01:08:08;;;;;;;20.00;3.55;;;4.80;99.90;;;;;;5068734;28;20052;-67
2022/01/28 01:10:34;;;;;;;21.58;2.40;;;4.80;99.90;;;;;;5065592;28;20039;-66
2022/01/28 01:13:01;;;;;;;25.25;3.95;;;4.70;99.90;;;;;;5061446;28;20056;-67
2022/01/28 01:15:32;;;;;;;20.05;3.17;;;4.60;99.90;;;;;;5064607;28;20047;-66
2022/01/28 01:18:05;;;;;;;20.08;3.92;;;4.60;99.90;;;;;;5062065;28;20074;-66
2022/01/28 01:20:53;;;;;;;39.97;5.40;;;4.60;99.90;;;;;;5057232;28;20045;-67
2022/01/28 01:23:25;;;;;;;21.40;3.58;;;4.60;99.90;;;;;;5062440;28;20037;-66
2022/01/28 01:25:57;;;;;;;23.17;3.58;;;4.50;99.90;;;;;;5070547;28;20067;-69
2022/01/28 01:28:29;;;;;;;26.02;3.90;;;4.60;99.90;;;;;;5063418;28;20513;-69
2022/01/28 01:30:57;;;;;;;26.23;3.63;;;4.60;99.90;;;;;;5068318;28;20074;-66
2022/01/28 01:33:22;;;;;;;27.30;3.88;;;4.60;99.90;;;;;;5068111;28;20053;-66
2022/01/28 01:35:48;;;;;;;27.80;4.35;;;4.70;99.90;;;;;;5062411;28;20045;-67
2022/01/28 01:38:14;;;;;;;29.30;4.47;;;4.70;99.90;;;;;;5059084;28;20246;-68
2022/01/28 01:40:46;;;;;;;23.40;4.03;;;5.00;99.90;;;;;;5065953;28;20036;-69
2022/01/28 01:53:38;;;;;;;18.33;3.50;;;4.90;99.90;;;;;;5056279;28;20060;-67
2022/01/28 01:56:04;;;;;;;24.10;3.45;;;4.90;99.90;;;;;;5067636;28;20041;-67
2022/01/28 01:58:31;;;;;;;21.45;3.78;;;5.00;99.90;;;;;;5061312;28;20040;-67
2022/01/28 02:00:59;;;;;;;31.83;4.60;;;5.00;99.90;;;;;;5058736;28;20044;-66
2022/01/28 02:03:25;;;;;;;29.10;4.68;;;5.00;99.90;;;;;;5068889;28;20117;-68
2022/01/28 02:05:51;;;;;;;35.28;4.65;;;5.00;99.90;;;;;;5071379;28;20041;-65
2022/01/28 02:08:16;;;;;;;29.80;4.35;;;5.00;99.90;;;;;;5066472;28;20196;-66
2022/01/28 02:10:42;;;;;;;26.70;5.13;;;5.00;99.90;;;;;;5061889;28;20041;-66
2022/01/28 02:13:08;;;;;;;33.50;4.38;;;5.10;99.90;;;;;;5058625;28;20039;-67
2022/01/28 02:15:34;;;;;;;29.35;4.95;;;5.20;99.90;;;;;;5065639;28;20099;-66
2022/01/28 02:17:59;;;;;;;19.70;3.28;;;5.20;99.90;;;;;;5057186;28;20045;-67
2022/01/28 02:20:32;;;;;;;25.85;4.38;;;5.20;99.90;;;;;;5059812;28;20510;-66
2022/01/28 02:22:57;;;;;;;17.08;3.10;;;5.30;99.90;;;;;;5055014;28;20082;-67
2022/01/28 02:25:24;;;;;;;28.33;4.65;;;5.30;99.90;;;;;;5063186;28;20040;-67
2022/01/28 02:27:50;;;;;;;26.35;4.20;;;5.40;99.90;;;;;;5066489;28;20132;-68
2022/01/28 02:30:16;;;;;;;19.58;3.53;;;5.30;99.90;;;;;;5061445;28;20416;-65
2022/01/28 02:32:43;;;;;;;15.95;3.40;;;5.40;99.90;;;;;;5067822;28;20098;-67
2022/01/28 02:35:09;;;;;;;31.30;4.65;;;5.40;99.90;;;;;;5065738;28;20037;-68
2022/01/28 02:37:35;;;;;;;26.50;3.60;;;5.40;99.90;;;;;;5058754;28;20037;-66
2022/01/28 02:40:01;;;;;;;23.23;4.03;;;5.30;99.90;;;;;;5062246;28;20037;-66
2022/01/28 02:42:44;;;;;;;25.30;3.85;;;5.30;99.90;;;;;;5053465;28;20114;-67
2022/01/28 02:45:09;;;;;;;39.42;5.68;;;5.20;99.90;;;;;;5067290;28;20051;-67
2022/01/28 02:47:38;;;;;;;35.08;4.72;;;5.20;99.90;;;;;;5058768;28;20045;-65
2022/01/28 02:50:07;;;;;;;30.55;4.35;;;5.20;99.90;;;;;;5056781;28;20059;-67
2022/01/28 02:52:42;;;;;;;33.97;4.40;;;5.20;99.90;;;;;;5070996;28;20044;-67
2022/01/28 02:55:11;;;;;;;28.70;4.95;;;5.20;99.90;;;;;;5071104;28;20041;-69
2022/01/28 02:57:41;;;;;;;29.85;4.80;;;5.20;99.90;;;;;;5070298;28;20295;-68
2022/01/28 03:00:07;;;;;;;27.77;5.53;;;5.20;99.90;;;;;;5069077;28;20122;-70
2022/01/28 03:02:33;;;;;;;24.30;4.22;;;5.20;99.90;;;;;;5061715;28;20127;-71
2022/01/28 03:05:17;;;;;;;29.80;4.88;;;5.30;99.90;;;;;;5066982;28;20119;-68
2022/01/28 03:07:43;;;;;;;23.27;3.58;;;5.30;99.90;;;;;;5064530;28;20041;-66
2022/01/28 03:12:48;;;;;;;27.05;5.10;;;5.40;99.90;;;;;;5057039;28;20041;-67
2022/01/28 03:15:19;;;;;;;29.38;5.47;;;5.40;99.90;;;;;;5067088;28;20080;-67
2022/01/28 03:17:53;;;;;;;29.08;4.18;;;5.40;99.90;;;;;;5071432;28;20244;-66
2022/01/28 03:22:46;;;;;;;27.30;5.38;;;5.40;99.90;;;;;;5072980;28;20088;-67
2022/01/28 03:25:13;;;;;;;30.33;4.88;;;5.30;99.90;;;;;;5067310;28;20032;-66
2022/01/28 03:27:51;;;;;;;27.17;5.10;;;5.30;99.90;;;;;;5062385;28;20398;-66
2022/01/28 03:30:17;;;;;;;24.25;3.33;;;5.30;99.90;;;;;;5063350;28;20048;-68
2022/01/28 03:32:42;;;;;;;17.00;3.05;;;5.30;99.90;;;;;;5069222;28;20403;-66
2022/01/28 03:35:10;;;;;;;25.30;3.92;;;5.30;99.90;;;;;;5066493;28;20041;-67
2022/01/28 03:37:36;;;;;;;29.13;3.70;;;5.30;99.90;;;;;;5065776;28;20052;-67
2022/01/28 03:40:04;;;;;;;25.48;3.83;;;6.30;99.90;;;;;;5061119;28;20292;-67
2022/01/28 03:42:30;;;;;;;28.48;4.50;;;5.30;99.90;;;;;;5071166;28;20387;-67
2022/01/28 03:44:56;;;;;;;21.55;3.65;;;5.30;99.90;;;;;;5068638;28;20037;-70
2022/01/28 03:47:21;;;;;;;17.88;4.30;;;5.30;99.90;;;;;;5071077;28;20041;-68
2022/01/28 03:49:47;;;;;;;30.00;4.20;;;5.30;99.90;;;;;;5073145;28;20048;-68
2022/01/28 03:52:12;;;;;;;11.55;2.92;;;5.70;99.90;;;;;;5062023;28;20037;-67
2022/01/28 03:54:38;;;;;;;22.20;4.43;;;5.40;99.90;;;;;;5053777;28;20128;-67
2022/01/28 03:57:06;;;;;;;25.52;4.88;;;5.40;99.90;;;;;;5067264;28;20502;-66
2022/01/28 03:59:32;;;;;;;;;;;5.40;99.90;;;;;;5064303;28;20119;-68
2022/01/28 04:01:57;;;;;;;29.10;4.07;;;5.40;99.90;;;;;;5057802;28;20020;-68
2022/01/28 04:12:39;;;;;;;22.02;4.30;;;5.40;99.90;;;;;;5065092;28;20091;-67
2022/01/28 04:17:51;;;;;;;19.58;4.10;;;5.30;99.90;;;;;;5062717;28;20080;-67
2022/01/28 04:20:17;;;;;;;18.95;3.67;;;5.20;99.90;;;;;;5070439;28;20039;-67
2022/01/28 04:22:43;;;;;;;32.30;4.80;;;5.20;99.90;;;;;;5061087;28;20036;-67
2022/01/28 04:25:09;;;;;;;19.42;4.72;;;5.50;99.90;;;;;;5069097;28;20037;-67
2022/01/28 04:27:35;;;;;;;25.92;4.40;;;5.20;99.90;;;;;;5064766;28;20036;-68
2022/01/28 04:30:01;;;;;;;24.73;4.15;;;5.20;99.90;;;;;;5066663;28;20570;-68
2022/01/28 04:32:29;;;;;;;23.50;5.03;;;5.20;99.90;;;;;;5063713;28;20452;-66
2022/01/28 04:34:55;;;;;;;18.65;3.80;;;5.20;99.90;;;;;;5066248;28;20044;-67
2022/01/28 04:37:35;;;;;;;29.33;4.50;;;6.00;99.90;;;;;;5067221;28;20050;-68
2022/01/28 04:43:14;;;;;;;30.92;4.10;;;5.40;99.90;;;;;;5039066;28;20513;-67
2022/01/28 04:45:49;;;;;;;27.33;4.65;;;5.40;99.90;;;;;;5050016;28;20040;-68
2022/01/28 04:48:27;;;;;;;29.38;4.68;;;5.40;99.90;;;;;;5068657;28;20049;-66
2022/01/28 04:53:59;;;;;;;34.78;5.10;;;5.40;99.90;;;;;;5064204;28;20483;-67
2022/01/28 04:56:34;;;;;;;30.40;4.45;;;5.30;99.90;;;;;;5055218;28;20051;-66
2022/01/28 04:59:21;;;;;;;20.98;3.90;;;5.30;99.90;;;;;;5052709;28;20106;-67
2022/01/28 05:27:56;;;;;;;21.38;4.13;;;4.90;99.90;;;;;;5059712;28;20135;-66
2022/01/28 05:30:22;;;;;;;22.38;4.25;;;4.90;99.90;;;;;;5061379;28;20148;-68
2022/01/28 05:32:48;;;;;;;22.42;4.72;;;4.80;99.90;;;;;;5070013;28;20101;-67
2022/01/28 05:35:14;;;;;;;22.73;3.15;;;4.90;99.90;;;;;;5052929;28;20083;-69
2022/01/28 05:37:40;;;;;;;27.55;5.25;;;4.90;99.90;;;;;;5055919;28;20511;-68
2022/01/28 05:40:06;;;;;;;26.75;4.80;;;4.90;99.90;;;;;;5060699;28;20510;-67
2022/01/28 05:42:33;;;;;;;25.85;4.18;;;5.00;99.90;;;;;;5068395;28;20051;-66
2022/01/28 05:44:59;;;;;;;21.25;4.38;;;5.00;99.90;;;;;;5069808;28;20510;-69
2022/01/28 05:47:25;;;;;;;24.50;3.85;;;5.00;99.90;;;;;;5060646;28;20132;-67
2022/01/28 05:49:51;;;;;;;28.77;5.05;;;5.00;99.90;;;;;;5066298;28;20043;-70
2022/01/28 05:52:17;;;;;;;29.80;4.05;;;5.00;99.90;;;;;;5070552;28;20505;-68
2022/01/28 05:54:42;;;;;;;22.73;4.03;;;5.10;99.90;;;;;;5068682;28;20032;-69
2022/01/28 05:57:11;;;;;;;24.70;3.83;;;5.00;99.90;;;;;;5070097;28;20090;-68
2022/01/28 05:59:37;;;;;;;21.73;3.33;;;5.10;99.90;;;;;;5065849;28;20032;-67
2022/01/28 06:02:02;;;;;;;35.85;4.70;;;5.10;99.90;;;;;;5062843;28;20048;-67
2022/01/28 06:04:28;;;;;;;16.88;3.85;;;5.10;99.90;;;;;;5056591;28;20041;-68
2022/01/28 06:06:54;;;;;;;30.55;4.35;;;5.20;99.90;;;;;;5063522;28;20037;-67
2022/01/28 06:09:19;;;;;;;25.48;4.70;;;5.20;99.90;;;;;;5062470;28;20907;-68
2022/01/28 06:11:46;;;;;;;28.35;4.13;;;5.20;99.90;;;;;;5062003;28;20052;-67
2022/01/28 06:14:12;;;;;;;24.67;3.78;;;5.30;99.90;;;;;;5056774;28;20044;-69
2022/01/28 06:16:38;;;;;;;23.65;3.67;;;5.30;99.90;;;;;;5064495;28;20538;-68
2022/01/28 06:19:04;;;;;;;21.45;3.72;;;5.30;99.90;;;;;;5051756;28;20094;-67
2022/01/28 06:21:29;;;;;;;40.28;4.53;;;5.30;99.90;;;;;;5063037;28;20130;-67
2022/01/28 06:23:55;;;;;;;25.55;4.78;;;5.30;99.90;;;;;;5054460;28;20487;-69
2022/01/28 06:26:21;;;;;;;29.23;4.65;;;5.30;99.90;;;;;;5062716;28;20119;-68
2022/01/28 06:28:47;;;;;;;32.75;4.70;;;5.30;99.90;;;;;;5072260;28;20530;-68
2022/01/28 06:31:13;;;;;;;16.65;3.60;;;5.20;99.90;;;;;;5070929;28;20603;-68
2022/01/28 06:33:39;;;;;;;30.55;4.60;;;5.20;99.90;;;;;;5066442;28;20059;-68
2022/01/28 06:36:04;;;;;;;38.00;4.93;;;5.20;99.90;;;;;;5067338;28;20414;-69
2022/01/28 06:38:33;;;;;;;30.38;4.80;;;5.20;99.90;;;;;;5061724;28;20479;-68
2022/01/28 06:40:58;;;;;;;35.78;5.75;;;5.20;99.90;;;;;;5066720;28;20036;-68
2022/01/28 06:43:24;;;;;;;28.98;4.70;;;5.20;99.90;;;;;;5070065;28;20052;-69
2022/01/28 06:45:50;;;;;;;29.38;5.53;;;5.20;99.90;;;;;;5061316;28;20037;-69
2022/01/28 06:48:16;;;;;;;47.00;6.00;;;5.20;99.90;;;;;;5067335;28;20359;-70
2022/01/28 06:50:43;;;;;;;41.22;5.45;;;5.10;99.90;;;;;;5070019;28;20041;-68
2022/01/28 06:53:10;;;;;;;36.03;6.90;;;5.10;99.90;;;;;;5064677;28;20051;-68
2022/01/28 06:55:36;;;;;;;36.97;4.93;;;5.00;99.90;;;;;;5065885;28;20043;-68
2022/01/28 06:58:04;;;;;;;35.80;4.78;;;5.10;99.90;;;;;;5072862;28;20045;-68
2022/01/28 07:00:37;;;;;;;27.33;3.97;;;5.00;99.90;;;;;;5068615;28;20067;-68
2022/01/28 07:03:04;;;;;;;26.20;4.50;;;5.00;99.90;;;;;;5073286;28;20117;-69
2022/01/28 07:05:29;;;;;;;29.00;4.55;;;5.00;99.90;;;;;;5074152;28;20036;-68
2022/01/28 07:07:55;;;;;;;22.08;3.58;;;4.90;99.90;;;;;;5060157;28;20036;-68
2022/01/28 07:10:21;;;;;;;28.70;4.38;;;5.00;99.90;;;;;;5067507;28;20052;-69
2022/01/28 07:12:46;;;;;;;19.75;3.88;;;4.90;99.90;;;;;;5068344;28;20041;-69
2022/01/28 07:15:12;;;;;;;23.63;4.25;;;4.90;99.90;;;;;;5069221;28;20508;-67
2022/01/28 07:17:38;;;;;;;31.45;4.75;;;4.90;99.90;;;;;;5062128;28;20115;-69
2022/01/28 07:20:05;;;;;;;29.73;4.35;;;4.90;99.90;;;;;;5068352;28;20158;-68
2022/01/28 07:22:31;;;;;;;40.13;4.82;;;4.90;99.90;;;;;;5071417;28;20041;-69
2022/01/28 07:24:57;;;;;;;22.88;4.25;;;4.80;99.90;;;;;;5065261;28;20051;-68
2022/01/28 07:27:22;;;;;;;28.52;5.30;;;4.70;99.90;;;;;;5067540;28;20033;-66
2022/01/28 07:29:50;;;;;;;25.92;4.25;;;4.80;99.90;;;;;;5072672;28;20052;-69
2022/01/28 07:32:16;;;;;;;22.57;4.63;;;4.80;99.90;;;;;;5064898;28;20040;-67
2022/01/28 07:34:43;;;;;;;32.40;5.18;;;4.80;99.90;;;;;;5072037;28;20037;-69
2022/01/28 07:37:08;;;;;;;30.85;5.43;;;4.80;99.90;;;;;;5072515;28;20049;-66
2022/01/28 07:39:34;;;;;;;30.48;5.25;;;4.80;99.90;;;;;;5069198;28;20041;-68
2022/01/28 07:42:00;;;;;;;30.70;4.57;;;4.90;99.90;;;;;;5054882;28;20084;-69
2022/01/28 07:44:26;;;;;;;35.08;4.55;;;5.20;99.90;;;;;;5060633;28;20037;-67
2022/01/28 07:46:51;;;;;;;32.10;4.72;;;4.90;99.90;;;;;;5071530;28;20461;-69
2022/01/28 07:49:17;;;;;;;39.03;5.45;;;4.90;99.90;;;;;;5069925;28;20063;-70
2022/01/28 07:51:43;;;;;;;55.72;4.75;;;5.00;99.90;;;;;;5068898;28;20040;-71
2022/01/28 07:54:09;;;;;;;35.70;5.30;;;5.00;99.90;;;;;;5066389;28;20097;-69
2022/01/28 07:56:35;;;;;;;36.15;5.45;;;5.00;99.90;;;;;;5059686;28;20040;-67
2022/01/28 07:59:01;;;;;;;31.85;4.55;;;5.00;99.90;;;;;;5068021;28;20562;-69
2022/01/28 08:01:27;;;;;;;38.63;5.88;;;5.00;99.90;;;;;;5072205;28;20521;-68
2022/01/28 08:03:52;;;;;;;41.88;5.20;;;5.00;99.90;;;;;;5060588;28;20156;-69
2022/01/28 08:06:18;;;;;;;30.45;5.63;;;5.00;99.90;;;;;;5058589;28;20478;-69
2022/01/28 08:08:44;;;;;;;34.83;5.78;;;5.00;99.90;;;;;;5044465;28;20040;-68
2022/01/28 08:11:09;;;;;;;29.52;5.45;;;5.00;99.90;;;;;;5060375;28;20062;-69
2022/01/28 08:13:35;;;;;;;28.55;4.13;;;5.00;99.90;;;;;;5061465;28;20041;-68
2022/01/28 08:16:01;;;;;;;31.15;4.60;;;5.00;99.90;;;;;;5068105;28;21435;-70
2022/01/28 08:18:26;;;;;;;30.65;4.88;;;5.10;99.90;;;;;;5063103;28;20399;-67
2022/01/28 08:20:52;;;;;;;27.45;4.30;;;5.10;99.90;;;;;;5068049;28;20036;-67
2022/01/28 08:23:18;;;;;;;30.20;5.38;;;5.10;99.90;;;;;;5067291;28;20424;-67
2022/01/28 08:25:44;;;;;;;35.30;5.65;;;5.20;99.90;;;;;;5067351;28;20074;-68
2022/01/28 08:28:10;;;;;;;33.17;4.22;;;5.20;99.90;;;;;;5069508;28;20052;-70
2022/01/28 08:30:40;;;;;;;23.08;4.10;;;5.20;99.90;;;;;;5062985;28;20106;-66
2022/01/28 08:33:06;;;;;;;25.20;5.18;;;5.20;99.90;;;;;;5061294;28;20048;-67
2022/01/28 08:35:36;;;;;;;24.15;4.07;;;5.20;99.90;;;;;;5069508;28;20047;-68
2022/01/28 08:38:02;;;;;;;26.45;4.25;;;5.30;99.90;;;;;;5072555;28;20040;-69
2022/01/28 08:40:29;;;;;;;32.70;4.68;;;5.30;99.90;;;;;;5065799;28;20090;-69
2022/01/28 08:42:55;;;;;;;29.23;4.50;;;5.20;99.90;;;;;;5062949;28;20123;-68
2022/01/28 08:45:21;;;;;;;20.52;4.57;;;5.10;99.90;;;;;;5072028;28;20131;-67
2022/01/28 08:47:48;;;;;;;33.63;4.68;;;5.10;99.90;;;;;;5070922;28;20048;-66
2022/01/28 08:50:14;;;;;;;36.80;4.68;;;5.10;99.90;;;;;;5064573;28;20087;-68
2022/01/28 08:52:40;;;;;;;30.98;5.03;;;5.30;99.90;;;;;;5068747;28;20037;-68
2022/01/28 08:55:06;;;;;;;30.58;4.95;;;5.30;99.90;;;;;;5066573;28;20474;-70
2022/01/28 08:57:33;;;;;;;29.88;5.70;;;5.40;99.90;;;;;;5051105;28;20075;-66
2022/01/28 08:59:58;;;;;;;37.47;4.85;;;5.50;99.90;;;;;;5070468;28;20433;-67
2022/01/28 09:02:25;;;;;;;20.15;3.67;;;5.50;99.90;;;;;;5071191;28;20049;-68
2022/01/28 09:04:50;;;;;;;38.00;5.03;;;5.40;99.90;;;;;;5071665;28;20078;-67
2022/01/28 09:07:18;;;;;;;32.42;4.65;;;5.40;99.90;;;;;;5071600;28;20033;-67
2022/01/28 09:09:50;;;;;;;29.55;4.60;;;5.90;99.90;;;;;;5066193;28;20052;-68
2022/01/28 09:12:35;;;;;;;31.17;4.35;;;5.50;99.90;;;;;;5062687;28;20041;-67
2022/01/28 09:15:03;;;;;;;30.33;5.00;;;5.60;99.90;;;;;;5072148;28;20165;-67
2022/01/28 09:17:29;;;;;;;24.50;4.00;;;5.60;99.90;;;;;;5063189;28;20455;-69
2022/01/28 09:19:55;;;;;;;39.70;5.30;;;5.70;99.90;;;;;;5064026;28;20083;-69
2022/01/28 09:22:21;;;;;;;34.88;4.53;;;5.70;99.90;;;;;;5059488;28;20166;-68
2022/01/28 09:24:46;;;;;;;31.67;5.30;;;5.90;99.90;;;;;;5052513;28;20116;-70
2022/01/28 09:27:12;;;;;;;39.13;5.63;;;6.00;99.90;;;;;;5065563;28;20060;-66
2022/01/28 09:29:38;;;;;;;23.77;4.00;;;6.20;99.90;;;;;;5070394;28;20047;-68
2022/01/28 09:32:04;;;;;;;30.77;4.65;;;6.30;99.90;;;;;;5070778;28;20096;-68
2022/01/28 09:34:30;;;;;;;32.22;5.55;;;6.50;99.90;;;;;;5066870;28;20044;-68
2022/01/28 09:36:56;;;;;;;36.72;5.10;;;6.70;99.90;;;;;;5067171;28;20068;-67
2022/01/28 09:39:22;;;;;;;37.30;4.35;;;6.80;99.90;;;;;;5067776;28;20551;-67
2022/01/28 09:41:48;;;;;;;19.98;3.38;;;7.00;99.90;;;;;;5070049;28;20054;-67
2022/01/28 09:44:18;;;;;;;29.65;4.05;;;7.20;99.90;;;;;;5068962;28;20041;-67
2022/01/28 09:46:44;;;;;;;34.90;4.50;;;7.40;99.90;;;;;;5070993;28;20102;-68
2022/01/28 09:49:11;;;;;;;33.25;4.70;;;7.50;99.90;;;;;;5071955;28;20376;-67
2022/01/28 09:51:37;;;;;;;29.83;4.40;;;7.60;99.90;;;;;;5069545;28;20037;-68
2022/01/28 09:54:03;;;;;;;28.10;4.50;;;7.50;99.90;;;;;;5063732;28;20261;-67
2022/01/28 09:56:30;;;;;;;24.10;5.07;;;7.50;99.90;;;;;;5071073;28;20033;-67
2022/01/28 09:58:55;;;;;;;27.02;4.40;;;7.40;99.90;;;;;;5070734;28;20094;-69
2022/01/28 10:01:21;;;;;;;26.73;5.00;;;7.40;99.90;;;;;;5068963;28;20045;-69
2022/01/28 10:03:59;;;;;;;27.13;4.45;;;7.30;99.90;;;;;;5071408;28;20039;-67
2022/01/28 10:06:32;;;;;;;35.83;5.13;;;7.30;99.90;;;;;;5068905;28;20045;-68
2022/01/28 10:09:01;;;;;;;30.73;4.63;;;7.20;99.90;;;;;;5052016;28;20577;-68
2022/01/28 10:11:27;;;;;;;31.75;4.28;;;7.20;99.90;;;;;;5067327;28;20044;-68
2022/01/28 10:13:56;;;;;;;25.65;4.00;;;7.20;99.90;;;;;;5054437;28;20606;-69
2022/01/28 10:16:23;;;;;;;27.42;4.32;;;7.20;99.90;;;;;;5065557;28;20094;-67
2022/01/28 10:18:57;;;;;;;31.13;5.00;;;7.20;99.90;;;;;;5075534;28;20043;-67
2022/01/28 10:21:27;;;;;;;30.52;4.55;;;7.30;99.90;;;;;;5058953;28;20487;-68
2022/01/28 10:23:58;;;;;;;26.67;4.85;;;7.30;99.90;;;;;;5057803;28;20041;-67
2022/01/28 10:26:32;;;;;;;30.33;5.68;;;7.30;99.90;;;;;;5056168;28;20101;-68
2022/01/28 10:28:59;;;;;;;23.10;4.05;;;7.30;99.90;;;;;;5068097;28;20048;-67
2022/01/28 10:31:41;;;;;;;26.75;4.65;;;7.30;99.90;;;;;;5074346;28;20048;-68
2022/01/28 10:34:18;;;;;;;34.42;4.45;;;7.30;99.90;;;;;;5055869;28;20069;-68
2022/01/28 10:36:46;;;;;;;42.95;4.93;;;7.30;99.90;;;;;;5055603;28;20049;-67
2022/01/28 10:39:13;;;;;;;;;;;7.30;99.90;;;;;;5072505;28;20033;-67
2022/01/28 10:41:48;;;;;;;34.35;6.05;;;7.30;99.90;;;;;;5062265;28;19921;-68
2022/01/28 10:44:15;;;;;;;33.60;5.13;;;7.50;99.90;;;;;;5074126;28;20094;-68
2022/01/28 10:46:41;;;;;;;40.28;5.38;;;7.40;99.90;;;;;;5067394;28;20044;-68
2022/01/28 10:49:08;;;;;;;34.95;5.45;;;7.50;99.90;;;;;;5053763;28;20094;-69
2022/01/28 10:51:43;;;;;;;40.45;5.25;;;7.50;99.90;;;;;;5054079;28;20461;-69
2022/01/28 10:54:15;;;;;;;32.05;5.25;;;7.60;99.90;;;;;;5045893;28;20138;-68
2022/01/28 10:56:57;;;;;;;27.38;4.28;;;7.60;99.90;;;;;;5065529;28;20041;-67
2022/01/28 10:59:26;;;;;;;32.72;4.80;;;7.60;99.90;;;;;;5055241;28;20041;-69
2022/01/28 11:01:52;;;;;;;28.98;4.78;;;7.60;99.90;;;;;;5055141;28;20044;-68
2022/01/28 11:04:19;;;;;;;30.27;5.50;;;7.60;99.90;;;;;;5055264;28;20425;-71
2022/01/28 11:06:46;;;;;;;32.75;5.32;;;7.60;99.90;;;;;;5073912;28;20040;-68
2022/01/28 11:09:14;;;;;;;23.50;4.57;;;7.60;99.90;;;;;;5067401;28;20032;-68
2022/01/28 11:11:40;;;;;;;28.35;4.50;;;7.70;99.90;;;;;;5066581;28;20044;-68
2022/01/28 11:14:06;;;;;;;28.25;4.28;;;7.70;99.90;;;;;;5072481;28;20131;-67
2022/01/28 11:16:32;;;;;;;29.98;5.28;;;7.70;99.90;;;;;;5059502;28;20041;-67
2022/01/28 11:18:59;;;;;;;23.25;4.40;;;7.70;99.90;;;;;;5070565;28;20367;-69
2022/01/28 11:21:52;;;;;;;31.90;5.10;;;7.70;99.90;;;;;;5045972;28;20500;-68
2022/01/28 11:25:00;;;;;;;21.40;4.47;;;7.70;99.90;;;;;;5070512;28;20037;-68
2022/01/28 11:27:30;;;;;;;25.95;4.72;;;7.60;99.90;;;;;;5066241;28;20553;-67
2022/01/28 11:30:26;;;;;;;23.33;4.63;;;7.60;99.90;;;;;;5068284;28;20521;-68
2022/01/28 11:33:07;;;;;;;27.83;4.65;;;7.50;99.90;;;;;;5052785;28;20045;-66
2022/01/28 11:35:36;;;;;;;30.92;4.75;;;7.50;99.90;;;;;;5072687;28;20044;-68
2022/01/28 11:38:25;;;;;;;19.65;3.78;;;7.40;99.90;;;;;;5053568;28;20570;-68
2022/01/28 11:41:06;;;;;;;25.20;3.90;;;7.30;99.90;;;;;;5053280;28;20041;-68
2022/01/28 11:43:33;;;;;;;35.85;4.72;;;7.30;99.90;;;;;;5063323;28;20084;-66
2022/01/28 11:46:10;;;;;;;16.35;3.65;;;7.20;99.90;;;;;;5054810;28;20052;-67
2022/01/28 11:48:51;;;;;;;30.17;4.82;;;7.20;99.90;;;;;;5067894;28;20041;-69
2022/01/28 11:51:20;;;;;;;24.00;4.18;;;7.20;99.90;;;;;;5066758;28;20062;-69
2022/01/28 11:53:58;;;;;;;;;;;7.50;99.90;;;;;;5056068;28;20124;-68
2022/01/28 11:56:25;;;;;;;28.50;4.57;;;7.30;99.90;;;;;;5073113;28;19920;-69
2022/01/28 11:59:03;;;;;;;24.13;4.22;;;7.50;99.90;;;;;;5068403;28;20036;-69
2022/01/28 12:01:41;;;;;;;44.78;5.45;;;7.60;99.90;;;;;;5053939;28;20033;-68
2022/01/28 12:04:29;;;;;;;32.08;4.43;;;7.60;99.90;;;;;;5066745;28;20487;-68
2022/01/28 12:07:02;;;;;;;23.00;4.10;;;7.70;99.90;;;;;;5054405;28;20064;-68
2022/01/28 12:09:33;;;;;;;23.83;4.32;;;7.70;99.90;;;;;;5066613;28;20041;-68
2022/01/28 12:12:00;;;;;;;26.40;5.18;;;7.70;99.90;;;;;;5040053;28;20053;-72
2022/01/28 12:14:52;;;;;;;26.60;4.65;;;7.70;99.90;;;;;;5071252;28;20125;-68
2022/01/28 12:17:34;;;;;;;17.30;4.15;;;7.70;99.90;;;;;;5066900;28;20178;-68
2022/01/28 12:20:15;;;;;;;21.02;3.95;;;7.80;99.90;;;;;;5055729;28;20049;-66
2022/01/28 12:23:16;;;;;;;29.20;5.53;;;7.90;99.90;;;;;;5058851;28;20049;-67
2022/01/28 12:25:42;;;;;;;25.45;4.03;;;8.00;99.90;;;;;;5069458;28;20124;-67
2022/01/28 12:28:33;;;;;;;28.35;4.07;;;7.90;99.90;;;;;;5068157;28;20123;-66
2022/01/28 12:31:00;;;;;;;21.15;3.67;;;7.90;99.90;;;;;;5069764;28;20177;-66
2022/01/28 12:33:28;;;;;;;23.25;3.97;;;7.80;99.90;;;;;;5066688;28;20123;-66
2022/01/28 12:35:56;;;;;;;19.45;3.70;;;7.80;99.90;;;;;;5064848;28;20049;-66
2022/01/28 12:38:26;;;;;;;18.60;3.67;;;7.80;99.90;;;;;;5070308;28;20414;-67
2022/01/28 12:40:54;;;;;;;23.65;4.13;;;7.80;99.90;;;;;;5063569;28;20087;-65
2022/01/28 12:43:22;;;;;;;19.65;3.10;;;7.70;99.90;;;;;;5063981;28;20556;-66
2022/01/28 12:45:58;;;;;;;25.08;4.05;;;7.70;99.90;;;;;;5064090;28;20059;-66
2022/01/28 12:48:24;;;;;;;24.90;4.38;;;7.80;99.90;;;;;;5072218;28;20378;-69
2022/01/28 12:50:50;;;;;;;31.08;3.42;;;7.80;99.90;;;;;;5064197;28;20044;-68
2022/01/28 12:53:45;;;;;;;18.73;3.67;;;7.80;99.90;;;;;;5070934;28;20051;-66
2022/01/28 12:56:13;;;;;;;19.77;3.45;;;7.80;99.90;;;;;;5067177;28;20043;-65
2022/01/28 12:58:47;;;;;;;19.90;3.60;;;7.70;99.90;;;;;;5061670;28;20044;-66
2022/01/28 13:01:15;;;;;;;18.63;3.80;;;7.70;99.90;;;;;;5065417;28;20275;-66
2022/01/28 13:03:55;;;;;;;22.33;3.65;;;7.60;99.90;;;;;;5066411;28;20040;-67
2022/01/28 13:06:40;;;;;;;22.60;3.85;;;7.50;99.90;;;;;;5065659;28;20045;-68
2022/01/28 13:09:21;;;;;;;26.17;4.13;;;7.50;99.90;;;;;;5064158;28;20041;-70
2022/01/28 13:11:49;;;;;;;23.60;3.83;;;7.40;99.90;;;;;;5071405;28;20044;-67
2022/01/28 13:14:18;;;;;;;;;;;7.40;99.90;;;;;;5069646;28;20517;-66
2022/01/28 13:16:46;;;;;;;26.20;3.20;;;7.40;99.90;;;;;;5066476;28;19928;-66
2022/01/28 13:19:13;;;;;;;28.95;4.28;;;7.40;99.90;;;;;;5066656;28;20087;-68
2022/01/28 13:21:41;;;;;;;30.02;4.07;;;7.40;99.90;;;;;;5063044;28;20418;-70
2022/01/28 13:24:15;;;;;;;18.58;3.22;;;7.30;99.90;;;;;;5062142;28;20040;-66
2022/01/28 13:26:55;;;;;;;27.15;3.88;;;7.20;99.90;;;;;;5065664;28;20036;-66
2022/01/28 13:29:39;;;;;;;24.27;3.53;;;7.20;99.90;;;;;;5065538;28;20037;-67
2022/01/28 13:32:07;;;;;;;24.33;3.88;;;7.10;99.90;;;;;;5063556;28;20048;-67
2022/01/28 13:34:48;;;;;;;20.42;3.60;;;7.10;99.90;;;;;;5064178;28;20044;-67
2022/01/28 13:37:37;;;;;;;14.52;3.35;;;7.00;99.90;;;;;;5065424;28;20101;-67
2022/01/28 13:40:09;;;;;;;23.52;4.35;;;7.00;99.90;;;;;;5069665;28;20044;-67
2022/01/28 13:42:57;;;;;;;18.65;3.35;;;6.90;99.90;;;;;;5070530;28;20494;-69
2022/01/28 13:45:53;;;;;;;27.88;3.75;;;6.90;99.90;;;;;;5068375;28;20048;-67
2022/01/28 13:48:39;;;;;;;26.80;4.00;;;6.90;99.90;;;;;;5064985;28;20083;-67
2022/01/28 13:51:09;;;;;;;21.88;3.15;;;7.00;99.90;;;;;;5062395;28;20090;-66
2022/01/28 13:54:15;;;;;;;23.40;3.90;;;7.00;99.90;;;;;;5071699;28;20044;-68
2022/01/28 13:56:35;;;;;;;23.42;3.85;;;7.00;99.90;;;;;;5065913;28;20049;-65
2022/01/28 13:59:01;;;;;;;21.25;4.60;;;7.10;99.90;;;;;;5071218;28;20102;-65
2022/01/28 14:01:28;;;;;;;18.15;3.47;;;7.10;99.90;;;;;;5063584;28;20483;-65
2022/01/28 14:03:59;;;;;;;28.80;3.67;;;7.00;99.90;;;;;;5071164;28;20048;-65
2022/01/28 14:06:33;;;;;;;17.48;3.40;;;7.00;99.90;;;;;;5070500;28;20456;-65
2022/01/28 14:09:06;;;;;;;20.95;3.63;;;6.90;99.90;;;;;;5068853;28;20060;-65
2022/01/28 14:11:51;;;;;;;15.75;3.83;;;7.00;99.90;;;;;;5070365;28;20037;-67
2022/01/28 14:14:43;;;;;;;22.67;3.95;;;7.00;99.90;;;;;;5064935;28;20086;-65
2022/01/28 14:17:10;;;;;;;22.05;3.13;;;6.90;99.90;;;;;;5062684;28;20032;-67
2022/01/28 14:19:41;;;;;;;17.05;3.38;;;6.90;99.90;;;;;;5063892;28;20423;-67
2022/01/28 14:22:08;;;;;;;27.52;3.97;;;6.90;99.90;;;;;;5067632;28;20537;-68